sensor_id;sensor_type;location;lat;lon;timestamp;P1;durP1;ratioP1;P2;durP2;ratioP2
37483;SDS011;23337;52.212;9.926;2024-02-26T00:01:08;2.43;;;2.00;;
37483;SDS011;23337;52.212;9.926;2024-02-26T00:03:34;2.60;;;2.40;;
37483;SDS011;23337;52.212;9.926;2024-02-26T00:06:01;2.93;;;2.53;;
37483;SDS011;23337;52.212;9.926;2024-02-26T00:08:27;3.27;;;2.10;;
37483;SDS011;23337;52.212;9.926;2024-02-26T00:10:53;2.43;;;1.90;;
37483;SDS011;23337;52.212;9.926;2024-02-26T00:13:19;3.17;;;2.03;;
37483;SDS011;23337;52.212;9.926;2024-02-26T00:15:45;3.43;;;2.03;;
37483;SDS011;23337;52.212;9.926;2024-02-26T00:18:11;2.77;;;2.13;;
37483;SDS011;23337;52.212;9.926;2024-02-26T00:20:37;3.20;;;2.13;;
37483;SDS011;23337;52.212;9.926;2024-02-26T00:23:05;7.77;;;5.00;;
37483;SDS011;23337;52.212;9.926;2024-02-26T00:25:31;7.23;;;5.00;;
37483;SDS011;23337;52.212;9.926;2024-02-26T00:27:56;6.37;;;4.10;;
37483;SDS011;23337;52.212;9.926;2024-02-26T00:30:22;8.43;;;4.90;;
37483;SDS011;23337;52.212;9.926;2024-02-26T00:32:48;7.63;;;5.33;;
37483;SDS011;23337;52.212;9.926;2024-02-26T00:35:14;9.13;;;6.00;;
37483;SDS011;23337;52.212;9.926;2024-02-26T00:37:41;6.20;;;4.60;;
37483;SDS011;23337;52.212;9.926;2024-02-26T00:40:09;6.53;;;4.47;;
37483;SDS011;23337;52.212;9.926;2024-02-26T00:42:35;3.80;;;3.00;;
37483;SDS011;23337;52.212;9.926;2024-02-26T00:45:01;3.07;;;2.50;;
37483;SDS011;23337;52.212;9.926;2024-02-26T00:47:27;3.13;;;2.80;;
37483;SDS011;23337;52.212;9.926;2024-02-26T00:49:53;2.57;;;2.30;;
37483;SDS011;23337;52.212;9.926;2024-02-26T00:52:19;2.80;;;2.30;;
37483;SDS011;23337;52.212;9.926;2024-02-26T00:54:45;2.73;;;2.27;;
37483;SDS011;23337;52.212;9.926;2024-02-26T00:57:11;3.07;;;1.83;;
37483;SDS011;23337;52.212;9.926;2024-02-26T00:59:37;2.40;;;2.20;;
37483;SDS011;23337;52.212;9.926;2024-02-26T01:02:03;2.27;;;2.07;;
37483;SDS011;23337;52.212;9.926;2024-02-26T01:04:31;3.27;;;2.43;;
37483;SDS011;23337;52.212;9.926;2024-02-26T01:06:59;4.03;;;3.30;;
37483;SDS011;23337;52.212;9.926;2024-02-26T01:09:25;3.10;;;2.40;;
37483;SDS011;23337;52.212;9.926;2024-02-26T01:11:50;2.83;;;2.63;;
37483;SDS011;23337;52.212;9.926;2024-02-26T01:14:16;2.50;;;2.30;;
37483;SDS011;23337;52.212;9.926;2024-02-26T01:16:42;2.83;;;2.43;;
37483;SDS011;23337;52.212;9.926;2024-02-26T01:19:08;3.63;;;2.50;;
37483;SDS011;23337;52.212;9.926;2024-02-26T01:21:34;3.03;;;2.13;;
37483;SDS011;23337;52.212;9.926;2024-02-26T01:24:00;3.00;;;2.53;;
37483;SDS011;23337;52.212;9.926;2024-02-26T01:26:26;2.80;;;2.50;;
37483;SDS011;23337;52.212;9.926;2024-02-26T01:28:52;3.80;;;2.60;;
37483;SDS011;23337;52.212;9.926;2024-02-26T01:31:19;2.90;;;2.60;;
37483;SDS011;23337;52.212;9.926;2024-02-26T01:33:45;3.97;;;2.60;;
37483;SDS011;23337;52.212;9.926;2024-02-26T01:36:11;4.50;;;2.70;;
37483;SDS011;23337;52.212;9.926;2024-02-26T01:38:37;3.40;;;2.40;;
37483;SDS011;23337;52.212;9.926;2024-02-26T01:41:03;2.50;;;2.30;;
37483;SDS011;23337;52.212;9.926;2024-02-26T01:43:29;3.10;;;2.60;;
37483;SDS011;23337;52.212;9.926;2024-02-26T01:45:55;3.33;;;2.50;;
37483;SDS011;23337;52.212;9.926;2024-02-26T01:48:21;4.77;;;2.90;;
37483;SDS011;23337;52.212;9.926;2024-02-26T01:50:47;36.80;;;15.53;;
37483;SDS011;23337;52.212;9.926;2024-02-26T01:53:13;24.13;;;10.93;;
37483;SDS011;23337;52.212;9.926;2024-02-26T01:55:40;13.20;;;6.93;;
37483;SDS011;23337;52.212;9.926;2024-02-26T01:58:06;13.93;;;6.93;;
37483;SDS011;23337;52.212;9.926;2024-02-26T02:00:32;10.23;;;5.73;;
37483;SDS011;23337;52.212;9.926;2024-02-26T02:02:58;9.43;;;4.57;;
37483;SDS011;23337;52.212;9.926;2024-02-26T02:05:24;11.00;;;5.40;;
37483;SDS011;23337;52.212;9.926;2024-02-26T02:07:50;9.77;;;5.23;;
37483;SDS011;23337;52.212;9.926;2024-02-26T02:10:18;7.20;;;4.17;;
37483;SDS011;23337;52.212;9.926;2024-02-26T02:12:48;8.57;;;5.03;;
37483;SDS011;23337;52.212;9.926;2024-02-26T02:15:14;9.57;;;6.30;;
37483;SDS011;23337;52.212;9.926;2024-02-26T02:17:40;7.10;;;4.37;;
37483;SDS011;23337;52.212;9.926;2024-02-26T02:20:09;7.07;;;3.70;;
37483;SDS011;23337;52.212;9.926;2024-02-26T02:22:35;5.10;;;3.67;;
37483;SDS011;23337;52.212;9.926;2024-02-26T02:25:01;5.60;;;3.70;;
37483;SDS011;23337;52.212;9.926;2024-02-26T02:27:28;6.47;;;3.47;;
37483;SDS011;23337;52.212;9.926;2024-02-26T02:29:55;4.50;;;3.50;;
37483;SDS011;23337;52.212;9.926;2024-02-26T02:32:21;7.43;;;4.10;;
37483;SDS011;23337;52.212;9.926;2024-02-26T02:34:47;8.77;;;4.40;;
37483;SDS011;23337;52.212;9.926;2024-02-26T02:37:13;6.13;;;3.53;;
37483;SDS011;23337;52.212;9.926;2024-02-26T02:39:39;6.20;;;4.80;;
37483;SDS011;23337;52.212;9.926;2024-02-26T02:42:07;7.60;;;4.23;;
37483;SDS011;23337;52.212;9.926;2024-02-26T02:44:33;6.17;;;4.17;;
37483;SDS011;23337;52.212;9.926;2024-02-26T02:46:59;4.83;;;3.13;;
37483;SDS011;23337;52.212;9.926;2024-02-26T02:49:25;7.20;;;3.20;;
37483;SDS011;23337;52.212;9.926;2024-02-26T02:51:51;7.83;;;3.07;;
37483;SDS011;23337;52.212;9.926;2024-02-26T02:54:19;5.23;;;3.10;;
37483;SDS011;23337;52.212;9.926;2024-02-26T02:56:45;4.57;;;3.67;;
37483;SDS011;23337;52.212;9.926;2024-02-26T02:59:11;6.40;;;4.00;;
37483;SDS011;23337;52.212;9.926;2024-02-26T03:01:37;6.77;;;4.20;;
37483;SDS011;23337;52.212;9.926;2024-02-26T03:04:03;5.63;;;3.70;;
37483;SDS011;23337;52.212;9.926;2024-02-26T03:06:29;6.33;;;3.73;;
37483;SDS011;23337;52.212;9.926;2024-02-26T03:08:54;5.57;;;3.17;;
37483;SDS011;23337;52.212;9.926;2024-02-26T03:11:20;4.10;;;3.07;;
37483;SDS011;23337;52.212;9.926;2024-02-26T03:13:46;5.00;;;2.50;;
37483;SDS011;23337;52.212;9.926;2024-02-26T03:16:12;5.70;;;3.47;;
37483;SDS011;23337;52.212;9.926;2024-02-26T03:18:39;6.30;;;3.23;;
37483;SDS011;23337;52.212;9.926;2024-02-26T03:21:05;4.37;;;3.37;;
37483;SDS011;23337;52.212;9.926;2024-02-26T03:23:31;5.90;;;3.40;;
37483;SDS011;23337;52.212;9.926;2024-02-26T03:26:01;6.40;;;3.20;;
37483;SDS011;23337;52.212;9.926;2024-02-26T03:28:27;4.83;;;2.90;;
37483;SDS011;23337;52.212;9.926;2024-02-26T03:30:53;4.57;;;3.10;;
37483;SDS011;23337;52.212;9.926;2024-02-26T03:33:18;5.20;;;3.30;;
37483;SDS011;23337;52.212;9.926;2024-02-26T03:35:44;3.97;;;3.20;;
37483;SDS011;23337;52.212;9.926;2024-02-26T03:38:10;3.63;;;3.00;;
37483;SDS011;23337;52.212;9.926;2024-02-26T03:40:36;3.70;;;2.67;;
37483;SDS011;23337;52.212;9.926;2024-02-26T03:43:02;5.33;;;2.83;;
37483;SDS011;23337;52.212;9.926;2024-02-26T03:45:29;4.30;;;2.87;;
37483;SDS011;23337;52.212;9.926;2024-02-26T03:47:55;5.80;;;2.80;;
37483;SDS011;23337;52.212;9.926;2024-02-26T03:50:21;2.63;;;2.37;;
37483;SDS011;23337;52.212;9.926;2024-02-26T03:52:47;4.50;;;2.60;;
37483;SDS011;23337;52.212;9.926;2024-02-26T03:55:13;3.57;;;2.40;;
37483;SDS011;23337;52.212;9.926;2024-02-26T03:57:39;2.30;;;1.80;;
37483;SDS011;23337;52.212;9.926;2024-02-26T04:00:06;2.17;;;1.97;;
37483;SDS011;23337;52.212;9.926;2024-02-26T04:02:32;2.67;;;2.30;;
37483;SDS011;23337;52.212;9.926;2024-02-26T04:04:58;2.77;;;2.10;;
37483;SDS011;23337;52.212;9.926;2024-02-26T04:07:24;2.30;;;1.67;;
37483;SDS011;23337;52.212;9.926;2024-02-26T04:09:50;3.70;;;2.10;;
37483;SDS011;23337;52.212;9.926;2024-02-26T04:12:16;1.73;;;1.60;;
37483;SDS011;23337;52.212;9.926;2024-02-26T04:14:42;2.63;;;1.90;;
37483;SDS011;23337;52.212;9.926;2024-02-26T04:17:08;2.57;;;2.07;;
37483;SDS011;23337;52.212;9.926;2024-02-26T04:19:34;3.17;;;2.20;;
37483;SDS011;23337;52.212;9.926;2024-02-26T04:22:00;3.10;;;2.40;;
37483;SDS011;23337;52.212;9.926;2024-02-26T04:24:26;2.40;;;2.20;;
37483;SDS011;23337;52.212;9.926;2024-02-26T04:26:51;2.67;;;2.00;;
37483;SDS011;23337;52.212;9.926;2024-02-26T04:29:17;2.77;;;2.33;;
37483;SDS011;23337;52.212;9.926;2024-02-26T04:31:43;2.30;;;1.83;;
37483;SDS011;23337;52.212;9.926;2024-02-26T04:34:11;2.80;;;2.10;;
37483;SDS011;23337;52.212;9.926;2024-02-26T04:36:37;2.83;;;1.90;;
37483;SDS011;23337;52.212;9.926;2024-02-26T04:39:03;2.23;;;2.00;;
37483;SDS011;23337;52.212;9.926;2024-02-26T04:41:28;3.07;;;2.17;;
37483;SDS011;23337;52.212;9.926;2024-02-26T04:43:54;3.27;;;2.03;;
37483;SDS011;23337;52.212;9.926;2024-02-26T04:46:20;2.83;;;2.27;;
37483;SDS011;23337;52.212;9.926;2024-02-26T04:48:47;2.80;;;2.00;;
37483;SDS011;23337;52.212;9.926;2024-02-26T04:51:13;2.13;;;1.90;;
37483;SDS011;23337;52.212;9.926;2024-02-26T04:53:39;3.23;;;2.13;;
37483;SDS011;23337;52.212;9.926;2024-02-26T04:56:05;2.27;;;2.07;;
37483;SDS011;23337;52.212;9.926;2024-02-26T04:58:31;2.50;;;2.10;;
37483;SDS011;23337;52.212;9.926;2024-02-26T05:00:56;4.23;;;2.47;;
37483;SDS011;23337;52.212;9.926;2024-02-26T05:03:22;2.97;;;2.37;;
37483;SDS011;23337;52.212;9.926;2024-02-26T05:05:48;3.53;;;2.50;;
37483;SDS011;23337;52.212;9.926;2024-02-26T05:08:14;3.47;;;2.47;;
37483;SDS011;23337;52.212;9.926;2024-02-26T05:10:40;2.90;;;2.17;;
37483;SDS011;23337;52.212;9.926;2024-02-26T05:13:08;2.83;;;2.17;;
37483;SDS011;23337;52.212;9.926;2024-02-26T05:15:34;3.40;;;2.07;;
37483;SDS011;23337;52.212;9.926;2024-02-26T05:18:00;2.80;;;2.40;;
37483;SDS011;23337;52.212;9.926;2024-02-26T05:20:26;4.63;;;1.87;;
37483;SDS011;23337;52.212;9.926;2024-02-26T05:22:52;2.60;;;2.20;;
37483;SDS011;23337;52.212;9.926;2024-02-26T05:25:18;2.10;;;1.90;;
37483;SDS011;23337;52.212;9.926;2024-02-26T05:27:44;4.90;;;3.40;;
37483;SDS011;23337;52.212;9.926;2024-02-26T05:30:10;3.77;;;2.73;;
37483;SDS011;23337;52.212;9.926;2024-02-26T05:32:37;5.87;;;4.60;;
37483;SDS011;23337;52.212;9.926;2024-02-26T05:35:03;6.20;;;4.57;;
37483;SDS011;23337;52.212;9.926;2024-02-26T05:37:29;4.13;;;3.73;;
37483;SDS011;23337;52.212;9.926;2024-02-26T05:39:55;3.33;;;2.90;;
37483;SDS011;23337;52.212;9.926;2024-02-26T05:42:21;4.90;;;2.93;;
37483;SDS011;23337;52.212;9.926;2024-02-26T05:44:47;3.90;;;2.40;;
37483;SDS011;23337;52.212;9.926;2024-02-26T05:47:13;2.10;;;1.90;;
37483;SDS011;23337;52.212;9.926;2024-02-26T05:49:39;3.13;;;2.40;;
37483;SDS011;23337;52.212;9.926;2024-02-26T05:52:05;3.73;;;2.80;;
37483;SDS011;23337;52.212;9.926;2024-02-26T05:54:31;3.17;;;2.90;;
37483;SDS011;23337;52.212;9.926;2024-02-26T05:56:57;3.37;;;2.57;;
37483;SDS011;23337;52.212;9.926;2024-02-26T05:59:23;3.73;;;2.90;;
37483;SDS011;23337;52.212;9.926;2024-02-26T06:01:49;2.97;;;2.60;;
37483;SDS011;23337;52.212;9.926;2024-02-26T06:04:15;4.07;;;2.90;;
37483;SDS011;23337;52.212;9.926;2024-02-26T06:06:44;4.60;;;2.60;;
37483;SDS011;23337;52.212;9.926;2024-02-26T06:09:10;3.57;;;2.57;;
37483;SDS011;23337;52.212;9.926;2024-02-26T06:11:37;6.70;;;3.37;;
37483;SDS011;23337;52.212;9.926;2024-02-26T06:14:03;4.03;;;3.20;;
37483;SDS011;23337;52.212;9.926;2024-02-26T06:16:29;3.73;;;2.77;;
37483;SDS011;23337;52.212;9.926;2024-02-26T06:18:55;4.37;;;3.20;;
37483;SDS011;23337;52.212;9.926;2024-02-26T06:21:21;4.83;;;3.50;;
37483;SDS011;23337;52.212;9.926;2024-02-26T06:23:47;4.50;;;3.80;;
37483;SDS011;23337;52.212;9.926;2024-02-26T06:26:14;4.07;;;3.30;;
37483;SDS011;23337;52.212;9.926;2024-02-26T06:28:40;3.83;;;3.33;;
37483;SDS011;23337;52.212;9.926;2024-02-26T06:31:06;5.30;;;3.80;;
37483;SDS011;23337;52.212;9.926;2024-02-26T06:33:32;4.10;;;3.10;;
37483;SDS011;23337;52.212;9.926;2024-02-26T06:35:58;3.17;;;2.87;;
37483;SDS011;23337;52.212;9.926;2024-02-26T06:38:24;3.53;;;2.97;;
37483;SDS011;23337;52.212;9.926;2024-02-26T06:40:50;4.63;;;2.87;;
37483;SDS011;23337;52.212;9.926;2024-02-26T06:43:16;4.10;;;3.30;;
37483;SDS011;23337;52.212;9.926;2024-02-26T06:45:42;5.50;;;3.23;;
37483;SDS011;23337;52.212;9.926;2024-02-26T06:48:08;3.57;;;3.03;;
37483;SDS011;23337;52.212;9.926;2024-02-26T06:50:34;5.70;;;3.33;;
37483;SDS011;23337;52.212;9.926;2024-02-26T06:53:00;4.20;;;3.30;;
37483;SDS011;23337;52.212;9.926;2024-02-26T06:55:26;4.80;;;3.07;;
37483;SDS011;23337;52.212;9.926;2024-02-26T06:57:52;4.87;;;3.63;;
37483;SDS011;23337;52.212;9.926;2024-02-26T07:00:18;3.70;;;3.20;;
37483;SDS011;23337;52.212;9.926;2024-02-26T07:02:44;5.23;;;3.47;;
37483;SDS011;23337;52.212;9.926;2024-02-26T07:05:10;4.03;;;3.50;;
37483;SDS011;23337;52.212;9.926;2024-02-26T07:07:36;4.63;;;3.30;;
37483;SDS011;23337;52.212;9.926;2024-02-26T07:10:02;5.27;;;3.50;;
37483;SDS011;23337;52.212;9.926;2024-02-26T07:12:29;5.93;;;3.43;;
37483;SDS011;23337;52.212;9.926;2024-02-26T07:14:55;3.87;;;3.10;;
37483;SDS011;23337;52.212;9.926;2024-02-26T07:17:21;3.80;;;3.23;;
37483;SDS011;23337;52.212;9.926;2024-02-26T07:19:47;3.23;;;2.83;;
37483;SDS011;23337;52.212;9.926;2024-02-26T07:22:13;4.10;;;3.20;;
37483;SDS011;23337;52.212;9.926;2024-02-26T07:24:39;5.53;;;3.27;;
37483;SDS011;23337;52.212;9.926;2024-02-26T07:27:05;3.63;;;3.00;;
37483;SDS011;23337;52.212;9.926;2024-02-26T07:29:31;4.07;;;3.47;;
37483;SDS011;23337;52.212;9.926;2024-02-26T07:31:58;3.77;;;3.47;;
37483;SDS011;23337;52.212;9.926;2024-02-26T07:34:24;3.97;;;3.53;;
37483;SDS011;23337;52.212;9.926;2024-02-26T07:36:54;4.70;;;3.23;;
37483;SDS011;23337;52.212;9.926;2024-02-26T07:39:20;3.67;;;3.23;;
37483;SDS011;23337;52.212;9.926;2024-02-26T07:41:46;3.77;;;3.40;;
37483;SDS011;23337;52.212;9.926;2024-02-26T07:44:14;5.07;;;3.80;;
37483;SDS011;23337;52.212;9.926;2024-02-26T07:46:40;8.00;;;7.17;;
37483;SDS011;23337;52.212;9.926;2024-02-26T07:49:06;5.37;;;4.40;;
37483;SDS011;23337;52.212;9.926;2024-02-26T07:51:33;3.97;;;3.57;;
37483;SDS011;23337;52.212;9.926;2024-02-26T07:53:59;3.63;;;3.33;;
37483;SDS011;23337;52.212;9.926;2024-02-26T07:56:25;3.27;;;2.97;;
37483;SDS011;23337;52.212;9.926;2024-02-26T07:58:51;3.83;;;3.20;;
37483;SDS011;23337;52.212;9.926;2024-02-26T08:01:17;3.33;;;2.40;;
37483;SDS011;23337;52.212;9.926;2024-02-26T08:03:43;3.00;;;2.40;;
37483;SDS011;23337;52.212;9.926;2024-02-26T08:06:09;3.27;;;2.97;;
37483;SDS011;23337;52.212;9.926;2024-02-26T08:08:35;3.47;;;2.67;;
37483;SDS011;23337;52.212;9.926;2024-02-26T08:11:01;3.07;;;2.83;;
37483;SDS011;23337;52.212;9.926;2024-02-26T08:13:27;2.90;;;2.70;;
37483;SDS011;23337;52.212;9.926;2024-02-26T08:15:53;3.47;;;2.97;;
37483;SDS011;23337;52.212;9.926;2024-02-26T08:18:20;3.13;;;2.83;;
37483;SDS011;23337;52.212;9.926;2024-02-26T08:20:45;4.83;;;2.97;;
37483;SDS011;23337;52.212;9.926;2024-02-26T08:23:13;6.10;;;3.40;;
37483;SDS011;23337;52.212;9.926;2024-02-26T08:25:39;3.27;;;2.70;;
37483;SDS011;23337;52.212;9.926;2024-02-26T08:28:05;5.10;;;3.47;;
37483;SDS011;23337;52.212;9.926;2024-02-26T08:30:31;5.30;;;4.00;;
37483;SDS011;23337;52.212;9.926;2024-02-26T08:32:59;4.27;;;3.60;;
37483;SDS011;23337;52.212;9.926;2024-02-26T08:35:25;6.37;;;3.33;;
37483;SDS011;23337;52.212;9.926;2024-02-26T08:37:51;3.97;;;3.67;;
37483;SDS011;23337;52.212;9.926;2024-02-26T08:40:17;3.57;;;2.77;;
37483;SDS011;23337;52.212;9.926;2024-02-26T08:42:44;4.03;;;3.30;;
37483;SDS011;23337;52.212;9.926;2024-02-26T08:45:10;3.80;;;3.50;;
37483;SDS011;23337;52.212;9.926;2024-02-26T08:47:37;4.77;;;4.13;;
37483;SDS011;23337;52.212;9.926;2024-02-26T08:50:03;3.57;;;3.27;;
37483;SDS011;23337;52.212;9.926;2024-02-26T08:52:29;3.60;;;3.30;;
37483;SDS011;23337;52.212;9.926;2024-02-26T08:54:55;4.23;;;3.43;;
37483;SDS011;23337;52.212;9.926;2024-02-26T08:57:22;3.27;;;2.73;;
37483;SDS011;23337;52.212;9.926;2024-02-26T08:59:48;3.60;;;2.90;;
37483;SDS011;23337;52.212;9.926;2024-02-26T09:02:14;5.07;;;3.30;;
37483;SDS011;23337;52.212;9.926;2024-02-26T09:04:40;3.33;;;2.80;;
37483;SDS011;23337;52.212;9.926;2024-02-26T09:07:06;3.37;;;2.90;;
37483;SDS011;23337;52.212;9.926;2024-02-26T09:09:32;3.17;;;2.87;;
37483;SDS011;23337;52.212;9.926;2024-02-26T09:11:58;4.60;;;2.90;;
37483;SDS011;23337;52.212;9.926;2024-02-26T09:14:24;4.33;;;3.17;;
37483;SDS011;23337;52.212;9.926;2024-02-26T09:16:50;4.40;;;3.03;;
37483;SDS011;23337;52.212;9.926;2024-02-26T09:19:17;3.77;;;3.00;;
37483;SDS011;23337;52.212;9.926;2024-02-26T09:21:43;5.17;;;3.43;;
37483;SDS011;23337;52.212;9.926;2024-02-26T09:24:09;4.37;;;3.20;;
37483;SDS011;23337;52.212;9.926;2024-02-26T09:26:36;4.13;;;3.17;;
37483;SDS011;23337;52.212;9.926;2024-02-26T09:29:02;3.47;;;3.03;;
37483;SDS011;23337;52.212;9.926;2024-02-26T09:31:29;5.07;;;3.70;;
37483;SDS011;23337;52.212;9.926;2024-02-26T09:33:55;4.40;;;3.33;;
37483;SDS011;23337;52.212;9.926;2024-02-26T09:36:21;3.53;;;3.23;;
37483;SDS011;23337;52.212;9.926;2024-02-26T09:38:48;3.80;;;3.40;;
37483;SDS011;23337;52.212;9.926;2024-02-26T09:41:14;4.87;;;3.20;;
37483;SDS011;23337;52.212;9.926;2024-02-26T09:43:41;3.40;;;3.07;;
37483;SDS011;23337;52.212;9.926;2024-02-26T09:46:09;4.53;;;3.60;;
37483;SDS011;23337;52.212;9.926;2024-02-26T09:48:35;4.33;;;3.50;;
37483;SDS011;23337;52.212;9.926;2024-02-26T09:51:03;3.57;;;2.90;;
37483;SDS011;23337;52.212;9.926;2024-02-26T09:53:29;3.67;;;3.37;;
37483;SDS011;23337;52.212;9.926;2024-02-26T09:55:58;5.33;;;3.33;;
37483;SDS011;23337;52.212;9.926;2024-02-26T09:58:24;4.47;;;3.07;;
37483;SDS011;23337;52.212;9.926;2024-02-26T10:00:53;5.53;;;3.57;;
37483;SDS011;23337;52.212;9.926;2024-02-26T10:03:24;3.57;;;3.27;;
37483;SDS011;23337;52.212;9.926;2024-02-26T10:05:51;3.40;;;2.57;;
37483;SDS011;23337;52.212;9.926;2024-02-26T10:08:20;4.87;;;3.00;;
37483;SDS011;23337;52.212;9.926;2024-02-26T10:10:47;3.40;;;2.53;;
37483;SDS011;23337;52.212;9.926;2024-02-26T10:13:13;3.13;;;2.60;;
37483;SDS011;23337;52.212;9.926;2024-02-26T10:15:39;3.73;;;2.63;;
37483;SDS011;23337;52.212;9.926;2024-02-26T10:18:05;3.97;;;3.03;;
37483;SDS011;23337;52.212;9.926;2024-02-26T10:20:31;3.80;;;2.60;;
37483;SDS011;23337;52.212;9.926;2024-02-26T10:22:58;3.33;;;3.03;;
37483;SDS011;23337;52.212;9.926;2024-02-26T10:25:24;3.13;;;2.83;;
37483;SDS011;23337;52.212;9.926;2024-02-26T10:27:50;2.63;;;2.43;;
37483;SDS011;23337;52.212;9.926;2024-02-26T10:30:17;2.80;;;2.60;;
37483;SDS011;23337;52.212;9.926;2024-02-26T10:32:47;3.47;;;2.90;;
37483;SDS011;23337;52.212;9.926;2024-02-26T10:35:14;3.43;;;3.13;;
37483;SDS011;23337;52.212;9.926;2024-02-26T10:37:40;3.03;;;2.40;;
37483;SDS011;23337;52.212;9.926;2024-02-26T10:40:13;3.17;;;2.63;;
37483;SDS011;23337;52.212;9.926;2024-02-26T10:42:40;3.33;;;2.73;;
37483;SDS011;23337;52.212;9.926;2024-02-26T10:45:06;3.00;;;2.60;;
37483;SDS011;23337;52.212;9.926;2024-02-26T10:47:34;3.20;;;2.90;;
37483;SDS011;23337;52.212;9.926;2024-02-26T10:50:01;3.00;;;2.70;;
37483;SDS011;23337;52.212;9.926;2024-02-26T10:52:27;3.90;;;3.10;;
37483;SDS011;23337;52.212;9.926;2024-02-26T10:54:56;2.90;;;2.37;;
37483;SDS011;23337;52.212;9.926;2024-02-26T10:57:22;2.57;;;2.37;;
37483;SDS011;23337;52.212;9.926;2024-02-26T10:59:50;2.60;;;2.37;;
37483;SDS011;23337;52.212;9.926;2024-02-26T11:02:17;5.67;;;2.30;;
37483;SDS011;23337;52.212;9.926;2024-02-26T11:04:43;2.47;;;2.27;;
37483;SDS011;23337;52.212;9.926;2024-02-26T11:07:10;2.70;;;2.33;;
37483;SDS011;23337;52.212;9.926;2024-02-26T11:09:36;3.07;;;2.57;;
37483;SDS011;23337;52.212;9.926;2024-02-26T11:12:08;3.70;;;2.70;;
37483;SDS011;23337;52.212;9.926;2024-02-26T11:14:36;2.80;;;2.10;;
37483;SDS011;23337;52.212;9.926;2024-02-26T11:17:02;2.20;;;2.00;;
37483;SDS011;23337;52.212;9.926;2024-02-26T11:19:28;2.77;;;2.07;;
37483;SDS011;23337;52.212;9.926;2024-02-26T11:21:55;3.00;;;2.27;;
37483;SDS011;23337;52.212;9.926;2024-02-26T11:24:21;4.20;;;2.50;;
37483;SDS011;23337;52.212;9.926;2024-02-26T11:29:14;4.03;;;1.83;;
37483;SDS011;23337;52.212;9.926;2024-02-26T11:31:41;5.60;;;2.30;;
37483;SDS011;23337;52.212;9.926;2024-02-26T11:34:08;3.23;;;2.40;;
37483;SDS011;23337;52.212;9.926;2024-02-26T11:36:34;2.80;;;2.30;;
37483;SDS011;23337;52.212;9.926;2024-02-26T11:39:01;2.40;;;2.20;;
37483;SDS011;23337;52.212;9.926;2024-02-26T11:41:27;2.80;;;2.33;;
37483;SDS011;23337;52.212;9.926;2024-02-26T11:43:57;2.57;;;2.23;;
37483;SDS011;23337;52.212;9.926;2024-02-26T11:48:53;3.87;;;2.77;;
37483;SDS011;23337;52.212;9.926;2024-02-26T11:51:24;3.70;;;2.53;;
37483;SDS011;23337;52.212;9.926;2024-02-26T11:53:50;4.17;;;2.33;;
37483;SDS011;23337;52.212;9.926;2024-02-26T11:58:42;5.33;;;2.73;;
37483;SDS011;23337;52.212;9.926;2024-02-26T12:03:55;4.87;;;3.33;;
37483;SDS011;23337;52.212;9.926;2024-02-26T12:06:22;4.87;;;3.13;;
37483;SDS011;23337;52.212;9.926;2024-02-26T12:08:48;4.77;;;3.03;;
37483;SDS011;23337;52.212;9.926;2024-02-26T12:11:14;6.50;;;4.10;;
37483;SDS011;23337;52.212;9.926;2024-02-26T12:13:41;4.77;;;3.37;;
37483;SDS011;23337;52.212;9.926;2024-02-26T12:16:08;5.00;;;3.97;;
37483;SDS011;23337;52.212;9.926;2024-02-26T12:18:34;5.47;;;4.07;;
37483;SDS011;23337;52.212;9.926;2024-02-26T12:21:00;5.67;;;4.30;;
37483;SDS011;23337;52.212;9.926;2024-02-26T12:23:27;6.90;;;4.73;;
37483;SDS011;23337;52.212;9.926;2024-02-26T12:25:53;7.23;;;3.60;;
37483;SDS011;23337;52.212;9.926;2024-02-26T12:28:19;7.03;;;5.10;;
37483;SDS011;23337;52.212;9.926;2024-02-26T12:30:45;8.70;;;4.30;;
37483;SDS011;23337;52.212;9.926;2024-02-26T12:33:11;5.50;;;3.63;;
37483;SDS011;23337;52.212;9.926;2024-02-26T12:35:38;4.47;;;3.83;;
37483;SDS011;23337;52.212;9.926;2024-02-26T12:38:04;5.63;;;4.07;;
37483;SDS011;23337;52.212;9.926;2024-02-26T12:40:31;4.97;;;2.83;;
37483;SDS011;23337;52.212;9.926;2024-02-26T12:42:57;6.37;;;4.27;;
37483;SDS011;23337;52.212;9.926;2024-02-26T12:45:23;5.70;;;4.43;;
37483;SDS011;23337;52.212;9.926;2024-02-26T12:47:51;6.17;;;4.40;;
37483;SDS011;23337;52.212;9.926;2024-02-26T12:50:17;7.50;;;5.53;;
37483;SDS011;23337;52.212;9.926;2024-02-26T12:52:43;6.60;;;5.10;;
37483;SDS011;23337;52.212;9.926;2024-02-26T12:55:11;6.83;;;5.50;;
37483;SDS011;23337;52.212;9.926;2024-02-26T12:57:39;6.73;;;5.10;;
37483;SDS011;23337;52.212;9.926;2024-02-26T13:00:06;6.63;;;4.33;;
37483;SDS011;23337;52.212;9.926;2024-02-26T13:02:34;5.57;;;4.77;;
37483;SDS011;23337;52.212;9.926;2024-02-26T13:05:01;4.93;;;4.20;;
37483;SDS011;23337;52.212;9.926;2024-02-26T13:07:28;6.67;;;4.60;;
37483;SDS011;23337;52.212;9.926;2024-02-26T13:09:54;4.50;;;3.93;;
37483;SDS011;23337;52.212;9.926;2024-02-26T13:12:20;10.53;;;4.83;;
37483;SDS011;23337;52.212;9.926;2024-02-26T13:14:46;5.93;;;5.13;;
37483;SDS011;23337;52.212;9.926;2024-02-26T13:17:12;7.33;;;5.47;;
37483;SDS011;23337;52.212;9.926;2024-02-26T13:19:48;7.23;;;6.00;;
37483;SDS011;23337;52.212;9.926;2024-02-26T13:22:14;5.93;;;5.30;;
37483;SDS011;23337;52.212;9.926;2024-02-26T13:24:40;7.57;;;5.50;;
37483;SDS011;23337;52.212;9.926;2024-02-26T13:27:06;6.73;;;4.80;;
37483;SDS011;23337;52.212;9.926;2024-02-26T13:29:32;7.87;;;5.33;;
37483;SDS011;23337;52.212;9.926;2024-02-26T13:31:58;9.17;;;5.57;;
37483;SDS011;23337;52.212;9.926;2024-02-26T13:34:28;6.77;;;5.23;;
37483;SDS011;23337;52.212;9.926;2024-02-26T13:36:55;5.70;;;5.07;;
37483;SDS011;23337;52.212;9.926;2024-02-26T13:39:22;5.43;;;4.83;;
37483;SDS011;23337;52.212;9.926;2024-02-26T13:41:48;5.77;;;4.90;;
37483;SDS011;23337;52.212;9.926;2024-02-26T13:44:14;5.83;;;5.20;;
37483;SDS011;23337;52.212;9.926;2024-02-26T13:46:40;6.77;;;5.17;;
37483;SDS011;23337;52.212;9.926;2024-02-26T13:49:07;5.37;;;4.87;;
37483;SDS011;23337;52.212;9.926;2024-02-26T13:51:34;7.43;;;5.23;;
37483;SDS011;23337;52.212;9.926;2024-02-26T13:54:00;5.20;;;4.70;;
37483;SDS011;23337;52.212;9.926;2024-02-26T13:56:26;7.23;;;5.90;;
37483;SDS011;23337;52.212;9.926;2024-02-26T13:58:52;8.43;;;4.90;;
37483;SDS011;23337;52.212;9.926;2024-02-26T14:01:18;5.97;;;5.37;;
37483;SDS011;23337;52.212;9.926;2024-02-26T14:03:44;5.87;;;4.77;;
37483;SDS011;23337;52.212;9.926;2024-02-26T14:06:10;5.27;;;4.47;;
37483;SDS011;23337;52.212;9.926;2024-02-26T14:08:36;7.20;;;5.27;;
37483;SDS011;23337;52.212;9.926;2024-02-26T14:11:02;5.27;;;4.77;;
37483;SDS011;23337;52.212;9.926;2024-02-26T14:13:28;6.67;;;5.43;;
37483;SDS011;23337;52.212;9.926;2024-02-26T14:15:54;6.87;;;4.87;;
37483;SDS011;23337;52.212;9.926;2024-02-26T14:18:21;6.70;;;5.63;;
37483;SDS011;23337;52.212;9.926;2024-02-26T14:20:46;6.53;;;5.80;;
37483;SDS011;23337;52.212;9.926;2024-02-26T14:23:12;6.23;;;5.63;;
37483;SDS011;23337;52.212;9.926;2024-02-26T14:25:38;6.53;;;5.90;;
37483;SDS011;23337;52.212;9.926;2024-02-26T14:28:04;6.67;;;5.90;;
37483;SDS011;23337;52.212;9.926;2024-02-26T14:30:30;7.03;;;6.37;;
37483;SDS011;23337;52.212;9.926;2024-02-26T14:32:57;6.83;;;6.13;;
37483;SDS011;23337;52.212;9.926;2024-02-26T14:35:23;7.00;;;6.03;;
37483;SDS011;23337;52.212;9.926;2024-02-26T14:37:50;8.13;;;6.57;;
37483;SDS011;23337;52.212;9.926;2024-02-26T14:40:16;9.17;;;6.67;;
37483;SDS011;23337;52.212;9.926;2024-02-26T14:42:43;7.97;;;6.33;;
37483;SDS011;23337;52.212;9.926;2024-02-26T14:45:10;8.33;;;6.53;;
37483;SDS011;23337;52.212;9.926;2024-02-26T14:47:36;11.80;;;6.60;;
37483;SDS011;23337;52.212;9.926;2024-02-26T14:50:02;6.43;;;5.70;;
37483;SDS011;23337;52.212;9.926;2024-02-26T14:52:28;7.03;;;5.87;;